createdAt,value
2022-09-28T00:01:29.802Z,10.51
2022-09-28T00:03:59.865Z,10.43
2022-09-28T00:06:30.246Z,10.44
2022-09-28T00:08:59.305Z,10.40
2022-09-28T00:11:29.939Z,10.37
2022-09-28T00:14:02.563Z,10.25
2022-09-28T00:16:33.174Z,10.21
2022-09-28T00:19:02.877Z,10.07
2022-09-28T00:21:33.378Z,10.02
2022-09-28T00:24:16.200Z,10.02
2022-09-28T00:26:48.421Z,9.92
2022-09-28T00:29:20.957Z,9.88
2022-09-28T00:31:54.145Z,9.87
2022-09-28T00:34:34.803Z,9.78
2022-09-28T00:37:06.458Z,9.77
2022-09-28T00:39:38.428Z,9.75
2022-09-28T00:42:17.764Z,9.78
2022-09-28T00:44:51.986Z,9.80
2022-09-28T00:47:44.320Z,9.85
2022-09-28T00:50:19.360Z,9.78
2022-09-28T00:52:53.309Z,9.72
2022-09-28T00:55:31.564Z,9.68
2022-09-28T00:58:04.926Z,9.68
2022-09-28T01:00:34.080Z,9.67
2022-09-28T01:03:05.169Z,9.71
2022-09-28T01:05:36.031Z,9.74
2022-09-28T01:08:07.500Z,9.70
2022-09-28T01:10:36.225Z,9.66
2022-09-28T01:13:06.325Z,9.65
2022-09-28T01:15:41.591Z,9.63
2022-09-28T01:18:17.929Z,9.59
2022-09-28T01:20:54.196Z,9.59
2022-09-28T01:23:49.209Z,9.60
2022-09-28T01:26:43.195Z,9.47
2022-09-28T01:29:18.789Z,9.47
2022-09-28T01:31:53.092Z,9.49
2022-09-28T01:34:25.990Z,9.52
2022-09-28T01:36:56.906Z,9.49
2022-09-28T01:39:29.711Z,9.50
2022-09-28T01:42:03.285Z,9.42
2022-09-28T01:44:33.157Z,9.41
2022-09-28T01:47:04.510Z,9.43
2022-09-28T01:49:36.417Z,9.44
2022-09-28T01:52:11.114Z,9.41
2022-09-28T01:54:44.043Z,9.40
2022-09-28T01:57:17.180Z,9.44
2022-09-28T01:59:51.612Z,9.41
2022-09-28T02:02:23.333Z,9.46
2022-09-28T02:04:55.496Z,9.48
2022-09-28T02:07:27.769Z,9.43
2022-09-28T02:09:58.638Z,9.46
2022-09-28T02:12:32.574Z,9.43
2022-09-28T02:15:08.600Z,9.39
2022-09-28T02:17:37.252Z,9.37
2022-09-28T02:20:07.558Z,9.35
2022-09-28T02:22:40.750Z,9.41
2022-09-28T02:25:11.653Z,9.49
2022-09-28T02:27:45.115Z,9.45
2022-09-28T02:30:14.774Z,9.45
2022-09-28T02:32:46.683Z,9.49
2022-09-28T02:35:18.494Z,9.50
2022-09-28T02:37:48.222Z,9.50
2022-09-28T02:40:18.035Z,9.53
2022-09-28T02:42:55.184Z,9.58
2022-09-28T02:45:32.461Z,9.54
2022-09-28T02:48:09.897Z,9.52
2022-09-28T02:50:44.941Z,9.55
2022-09-28T02:53:40.302Z,9.57
2022-09-28T02:56:22.096Z,9.61
2022-09-28T02:59:00.448Z,9.62
2022-09-28T03:01:32.741Z,9.68
2022-09-28T03:04:09.088Z,9.56
2022-09-28T03:06:42.157Z,9.48
2022-09-28T03:09:14.327Z,9.56
2022-09-28T03:11:46.957Z,9.56
2022-09-28T03:14:18.131Z,9.50
2022-09-28T03:16:52.626Z,9.64
2022-09-28T03:19:25.478Z,9.53
2022-09-28T03:21:54.825Z,9.58
2022-09-28T03:24:23.508Z,9.58
2022-09-28T03:26:53.457Z,9.58
2022-09-28T03:29:23.730Z,9.68
2022-09-28T03:31:58.974Z,9.77
2022-09-28T03:34:27.717Z,9.74
2022-09-28T03:36:56.881Z,9.85
2022-09-28T03:39:25.843Z,9.83
2022-09-28T03:41:54.561Z,9.80
2022-09-28T03:44:25.328Z,9.88
2022-09-28T03:46:53.603Z,9.97
2022-09-28T03:49:22.363Z,9.95
2022-09-28T03:51:51.694Z,9.86
2022-09-28T03:54:20.459Z,9.80
2022-09-28T03:56:49.118Z,9.77
2022-09-28T03:59:18.950Z,9.72
2022-09-28T04:01:50.164Z,9.66
2022-09-28T04:04:19.365Z,9.63
2022-09-28T04:06:48.009Z,9.55
2022-09-28T04:09:17.556Z,9.43
2022-09-28T04:12:03.374Z,9.39
2022-09-28T04:14:33.007Z,9.38
2022-09-28T04:17:03.056Z,9.42
2022-09-28T04:19:33.411Z,9.40
2022-09-28T04:22:25.074Z,9.30
2022-09-28T04:24:54.039Z,9.21
2022-09-28T04:27:39.965Z,9.15
2022-09-28T04:30:10.396Z,9.17
2022-09-28T04:32:42.087Z,9.16
2022-09-28T04:35:12.065Z,9.14
2022-09-28T04:37:40.453Z,9.04
2022-09-28T04:40:10.309Z,9.07
2022-09-28T04:42:39.748Z,9.13
2022-09-28T04:45:09.817Z,9.16
2022-09-28T04:47:43.188Z,9.09
2022-09-28T04:50:21.164Z,9.09
2022-09-28T04:53:12.721Z,9.08
2022-09-28T04:55:41.380Z,9.06
2022-09-28T04:58:10.023Z,9.03
2022-09-28T05:00:40.531Z,9.00
2022-09-28T05:03:21.095Z,8.97
2022-09-28T05:06:08.685Z,9.01
2022-09-28T05:08:44.927Z,9.05
2022-09-28T05:11:14.808Z,8.94
2022-09-28T05:13:45.470Z,8.92
2022-09-28T05:16:17.116Z,8.88
2022-09-28T05:19:06.623Z,8.91
2022-09-28T05:21:35.356Z,8.92
2022-09-28T05:24:07.653Z,8.89
2022-09-28T05:26:38.666Z,8.78
2022-09-28T05:29:08.788Z,8.78
2022-09-28T05:31:55.857Z,8.76
2022-09-28T05:34:47.986Z,8.74
2022-09-28T05:37:22.921Z,8.70
2022-09-28T05:39:51.723Z,8.70
2022-09-28T05:42:21.484Z,8.77
2022-09-28T05:44:50.149Z,8.86
2022-09-28T05:47:20.329Z,8.89
2022-09-28T05:49:50.147Z,8.99
2022-09-28T05:52:19.003Z,8.94
2022-09-28T05:54:47.935Z,9.05
2022-09-28T05:57:17.158Z,9.03
2022-09-28T05:59:46.075Z,8.78
2022-09-28T06:02:15.448Z,8.67
2022-09-28T06:04:45.234Z,8.70
2022-09-28T06:07:15.399Z,8.63
2022-09-28T06:09:45.172Z,8.65
2022-09-28T06:12:20.008Z,8.61
2022-09-28T06:14:57.314Z,8.70
2022-09-28T06:17:26.109Z,8.77
2022-09-28T06:20:17.712Z,8.85
2022-09-28T06:22:59.521Z,8.81
2022-09-28T06:25:28.639Z,8.94
2022-09-28T06:27:58.325Z,9.09
2022-09-28T06:30:28.799Z,9.05
2022-09-28T06:32:59.200Z,9.11
2022-09-28T06:35:30.546Z,9.31
2022-09-28T06:38:01.207Z,9.66
2022-09-28T06:40:29.492Z,9.59
2022-09-28T06:42:59.405Z,9.79
2022-09-28T06:45:52.444Z,9.96
2022-09-28T06:48:47.211Z,10.13
2022-09-28T06:51:36.882Z,10.16
2022-09-28T06:54:25.691Z,9.91
2022-09-28T06:57:09.372Z,9.82
2022-09-28T06:59:38.682Z,9.83
2022-09-28T07:02:07.989Z,10.09
2022-09-28T07:04:55.236Z,10.36
2022-09-28T07:07:44.954Z,10.59
2022-09-28T07:10:29.537Z,10.40
2022-09-28T07:13:46.421Z,10.66
2022-09-28T07:16:10.639Z,11.07
2022-09-28T07:18:39.357Z,11.12
2022-09-28T07:21:12.892Z,11.42
2022-09-28T07:23:52.782Z,11.13
2022-09-28T07:26:26.930Z,11.23
2022-09-28T07:29:06.882Z,11.70
2022-09-28T07:31:55.075Z,12.21
2022-09-28T07:34:44.862Z,12.16
2022-09-28T07:37:18.974Z,12.39
2022-09-28T07:40:14.106Z,12.94
2022-09-28T07:42:44.854Z,12.95
2022-09-28T07:45:15.124Z,14.08
2022-09-28T07:47:44.032Z,14.55
2022-09-28T07:50:38.880Z,16.88
2022-09-28T07:53:23.339Z,16.57
2022-09-28T07:56:10.619Z,14.34
2022-09-28T07:58:49.357Z,12.77
2022-09-28T08:01:44.478Z,11.88
2022-09-28T08:04:20.659Z,11.93
2022-09-28T08:06:49.440Z,12.23
2022-09-28T08:09:18.571Z,11.33
2022-09-28T08:12:06.350Z,11.97
2022-09-28T08:14:45.656Z,12.58
2022-09-28T08:17:33.331Z,13.32
2022-09-28T08:20:24.788Z,13.01
2022-09-28T08:22:53.681Z,12.63
2022-09-28T08:25:22.616Z,12.49
2022-09-28T08:27:52.108Z,12.92
2022-09-28T08:30:25.174Z,13.75
2022-09-28T08:33:04.353Z,14.96
2022-09-28T08:35:46.119Z,14.70
2022-09-28T08:38:32.811Z,14.36
2022-09-28T08:41:16.336Z,13.58
2022-09-28T08:44:19.530Z,14.01
2022-09-28T08:47:36.518Z,13.96
2022-09-28T08:50:33.401Z,13.24
2022-09-28T08:53:27.377Z,12.99
2022-09-28T08:56:29.626Z,12.95
2022-09-28T08:59:01.630Z,13.09
2022-09-28T09:01:36.080Z,13.06
2022-09-28T09:04:09.332Z,14.21
2022-09-28T09:07:11.965Z,15.10
2022-09-28T09:09:58.107Z,15.35
2022-09-28T09:12:33.849Z,14.39
2022-09-28T09:15:18.500Z,16.85
2022-09-28T09:17:53.843Z,19.20
2022-09-28T09:20:58.487Z,22.90
2022-09-28T09:23:38.554Z,24.30
2022-09-28T09:26:17.129Z,20.53
2022-09-28T09:29:13.779Z,19.82
2022-09-28T09:32:09.182Z,23.23
2022-09-28T09:34:50.837Z,23.07
2022-09-28T09:38:17.503Z,23.79
2022-09-28T09:41:23.261Z,21.99
2022-09-28T09:44:54.914Z,21.25
2022-09-28T09:47:45.090Z,21.79
2022-09-28T09:50:30.180Z,20.51
2022-09-28T09:53:03.882Z,20.79
2022-09-28T09:55:40.372Z,20.00
2022-09-28T09:58:39.576Z,17.54
2022-09-28T10:01:20.810Z,16.22
2022-09-28T10:04:30.710Z,16.82
2022-09-28T10:07:07.284Z,18.86
2022-09-28T10:09:41.083Z,18.15
2022-09-28T10:12:35.258Z,18.21
2022-09-28T10:15:03.948Z,17.43
2022-09-28T10:17:36.530Z,15.98
2022-09-28T10:20:25.758Z,15.57
2022-09-28T10:23:04.053Z,15.45
2022-09-28T10:25:35.620Z,15.41
2022-09-28T10:28:06.699Z,15.98
2022-09-28T10:30:44.647Z,18.69
2022-09-28T10:33:29.486Z,20.45
2022-09-28T10:35:58.741Z,23.83
2022-09-28T10:38:27.773Z,22.98
2022-09-28T10:41:00.883Z,18.83
2022-09-28T10:44:11.197Z,16.38
2022-09-28T10:47:02.686Z,15.36
2022-09-28T10:49:46.577Z,14.50
2022-09-28T10:52:35.291Z,13.77
2022-09-28T10:55:05.705Z,13.38
2022-09-28T10:57:35.016Z,13.21
2022-09-28T11:00:31.757Z,13.32
2022-09-28T11:03:30.858Z,14.21
2022-09-28T11:06:06.154Z,15.75
2022-09-28T11:08:39.900Z,16.40
2022-09-28T11:11:11.993Z,20.42
2022-09-28T11:13:45.993Z,24.11
2022-09-28T11:16:28.708Z,23.88
2022-09-28T11:19:00.500Z,19.06
2022-09-28T11:21:32.259Z,18.18
2022-09-28T11:24:20.144Z,15.88
2022-09-28T11:26:52.997Z,15.27
2022-09-28T11:29:36.535Z,15.23
2022-09-28T11:32:41.424Z,14.85
2022-09-28T11:35:24.156Z,14.48
2022-09-28T11:38:11.194Z,14.32
2022-09-28T11:41:05.141Z,14.12
2022-09-28T11:43:47.187Z,14.33
2022-09-28T11:46:21.321Z,14.20
2022-09-28T11:48:56.200Z,17.24
2022-09-28T11:51:27.672Z,20.08
2022-09-28T11:53:58.527Z,18.77
2022-09-28T11:56:34.132Z,19.48
2022-09-28T11:59:07.226Z,20.60
2022-09-28T12:01:46.649Z,21.32
2022-09-28T12:04:37.099Z,23.03
2022-09-28T12:07:11.469Z,20.70
2022-09-28T12:09:43.743Z,17.53
2022-09-28T12:12:26.196Z,17.60
2022-09-28T12:15:01.149Z,21.31
2022-09-28T12:17:34.904Z,21.06
2022-09-28T12:20:11.232Z,18.27
2022-09-28T12:22:42.268Z,16.30
2022-09-28T12:25:14.466Z,15.77
2022-09-28T12:27:47.756Z,15.51
2022-09-28T12:30:19.468Z,18.58
2022-09-28T12:32:50.904Z,17.15
2022-09-28T12:35:28.971Z,15.58
2022-09-28T12:38:16.650Z,14.28
2022-09-28T12:40:53.617Z,13.51
2022-09-28T12:43:46.796Z,13.68
2022-09-28T12:46:27.320Z,13.90
2022-09-28T12:50:20.088Z,13.74
2022-09-28T12:52:01.603Z,13.60
2022-09-28T12:55:08.521Z,13.50
2022-09-28T12:57:46.513Z,13.49
2022-09-28T13:00:17.609Z,13.88
2022-09-28T13:03:22.137Z,14.20
2022-09-28T13:06:21.489Z,14.25
2022-09-28T13:09:02.509Z,14.37
2022-09-28T13:11:34.984Z,14.35
2022-09-28T13:14:24.224Z,14.52
2022-09-28T13:17:00.531Z,14.97
2022-09-28T13:19:35.259Z,17.52
2022-09-28T13:22:11.869Z,20.01
2022-09-28T13:24:44.375Z,21.07
2022-09-28T13:27:17.398Z,21.82
2022-09-28T13:29:46.473Z,21.92
2022-09-28T13:32:15.615Z,21.20
2022-09-28T13:34:49.026Z,20.48
2022-09-28T13:37:24.274Z,21.37
2022-09-28T13:39:56.603Z,22.48
2022-09-28T13:42:56.443Z,23.44
2022-09-28T13:45:33.585Z,22.57
2022-09-28T13:48:15.527Z,20.62
2022-09-28T13:51:10.588Z,17.82
2022-09-28T13:53:54.324Z,16.13
2022-09-28T13:56:31.975Z,14.70
2022-09-28T13:59:03.339Z,14.14
2022-09-28T14:01:36.790Z,14.16
2022-09-28T14:04:16.436Z,14.55
2022-09-28T14:06:49.491Z,14.01
2022-09-28T14:09:40.422Z,13.92
2022-09-28T14:12:32.895Z,13.81
2022-09-28T14:15:02.117Z,13.54
2022-09-28T14:17:52.682Z,13.66
2022-09-28T14:20:25.048Z,13.80
2022-09-28T14:23:25.504Z,13.73
2022-09-28T14:26:31.532Z,13.59
2022-09-28T14:29:10.207Z,13.51
2022-09-28T14:31:43.351Z,13.55
2022-09-28T14:34:26.998Z,13.55
2022-09-28T14:37:13.362Z,13.68
2022-09-28T14:40:03.338Z,13.91
2022-09-28T14:42:32.535Z,13.64
2022-09-28T14:45:35.855Z,13.65
2022-09-28T14:48:11.975Z,13.37
2022-09-28T14:50:40.870Z,13.13
2022-09-28T14:53:13.636Z,12.82
2022-09-28T14:55:51.967Z,12.65
2022-09-28T14:58:23.722Z,12.79
2022-09-28T15:00:59.787Z,12.69
2022-09-28T15:03:31.050Z,12.64
2022-09-28T15:05:59.902Z,12.66
2022-09-28T15:08:38.387Z,12.61
2022-09-28T15:11:07.747Z,12.54
2022-09-28T15:13:36.693Z,12.59
2022-09-28T15:16:11.507Z,12.57
2022-09-28T15:19:20.625Z,12.39
2022-09-28T15:21:51.187Z,12.36
2022-09-28T15:24:27.235Z,12.39
2022-09-28T15:26:56.835Z,12.37
2022-09-28T15:29:27.392Z,12.27
2022-09-28T15:31:57.286Z,12.24
2022-09-28T15:34:48.197Z,12.19
2022-09-28T15:37:19.127Z,12.13
2022-09-28T15:39:48.315Z,12.15
2022-09-28T15:42:18.611Z,12.13
2022-09-28T15:45:07.922Z,12.12
2022-09-28T15:47:40.209Z,12.10
2022-09-28T15:50:21.911Z,12.12
2022-09-28T15:52:55.070Z,11.96
2022-09-28T15:55:26.083Z,12.01
2022-09-28T15:58:08.005Z,11.96
2022-09-28T16:00:37.039Z,11.91
2022-09-28T16:03:22.582Z,11.85
2022-09-28T16:05:52.905Z,11.90
2022-09-28T16:08:25.084Z,11.87
2022-09-28T16:11:09.263Z,11.87
2022-09-28T16:13:38.808Z,11.81
2022-09-28T16:16:07.588Z,11.81
2022-09-28T16:18:40.521Z,11.70
2022-09-28T16:21:28.103Z,11.67
2022-09-28T16:23:57.643Z,11.65
2022-09-28T16:26:34.114Z,11.59
2022-09-28T16:29:09.497Z,11.57
2022-09-28T16:31:41.529Z,11.55
2022-09-28T16:34:20.907Z,11.47
2022-09-28T16:36:51.073Z,11.43
2022-09-28T16:39:20.718Z,11.39
2022-09-28T16:41:52.063Z,11.41
2022-09-28T16:44:24.738Z,11.37
2022-09-28T16:46:55.236Z,11.40
2022-09-28T16:49:26.975Z,11.35
2022-09-28T16:51:55.863Z,11.33
2022-09-28T16:54:43.132Z,11.34
2022-09-28T16:57:13.739Z,11.30
2022-09-28T16:59:42.764Z,11.25
2022-09-28T17:05:10.312Z,11.28
2022-09-28T17:07:39.026Z,11.23
2022-09-28T17:10:15.599Z,11.27
2022-09-28T17:12:44.301Z,11.25
2022-09-28T17:15:16.518Z,11.27
2022-09-28T17:17:45.536Z,11.28
2022-09-28T17:20:22.604Z,11.36
2022-09-28T17:22:52.122Z,11.36
2022-09-28T17:25:21.050Z,11.30
2022-09-28T17:27:50.256Z,11.27
2022-09-28T17:30:23.633Z,11.27
2022-09-28T17:32:54.557Z,11.23
2022-09-28T17:35:25.609Z,11.05
2022-09-28T17:37:54.497Z,11.08
2022-09-28T17:40:28.503Z,11.02
2022-09-28T17:42:57.711Z,10.95
2022-09-28T17:45:31.396Z,10.94
2022-09-28T17:48:00.797Z,10.72
2022-09-28T17:50:34.298Z,10.78
2022-09-28T17:53:06.205Z,10.66
2022-09-28T17:55:36.803Z,10.68
2022-09-28T17:58:15.698Z,10.59
2022-09-28T18:00:44.887Z,10.56
2022-09-28T18:03:16.788Z,10.50
2022-09-28T18:05:48.371Z,10.40
2022-09-28T18:08:20.222Z,10.26
2022-09-28T18:10:49.148Z,10.22
2022-09-28T18:13:18.302Z,10.17
2022-09-28T18:15:47.529Z,10.14
2022-09-28T18:18:16.392Z,10.06
2022-09-28T18:20:46.643Z,9.98
2022-09-28T18:23:15.801Z,9.96
2022-09-28T18:25:45.517Z,9.91
2022-09-28T18:28:14.872Z,9.82
2022-09-28T18:30:45.022Z,9.73
2022-09-28T18:33:14.922Z,9.62
2022-09-28T18:35:53.462Z,9.41
2022-09-28T18:38:22.621Z,9.33
2022-09-28T18:40:51.212Z,9.27
2022-09-28T18:43:20.069Z,9.13
2022-09-28T18:45:49.381Z,8.94
2022-09-28T18:48:18.390Z,8.86
2022-09-28T18:50:47.612Z,8.73
2022-09-28T18:53:20.066Z,8.72
2022-09-28T18:55:48.936Z,8.62
2022-09-28T18:58:17.916Z,8.62
2022-09-28T19:00:46.661Z,8.51
2022-09-28T19:03:15.620Z,8.49
2022-09-28T19:05:44.748Z,8.47
2022-09-28T19:08:13.743Z,8.39
2022-09-28T19:10:44.752Z,8.42
2022-09-28T19:13:13.729Z,8.41
2022-09-28T19:15:42.717Z,8.41
2022-09-28T19:18:12.714Z,8.39
2022-09-28T19:20:41.582Z,8.45
2022-09-28T19:23:10.406Z,8.48
2022-09-28T19:25:40.382Z,8.42
2022-09-28T19:28:10.589Z,8.43
2022-09-28T19:30:39.529Z,8.42
2022-09-28T19:33:08.433Z,8.49
2022-09-28T19:35:37.194Z,8.47
2022-09-28T19:38:06.000Z,8.69
2022-09-28T19:40:38.152Z,8.73
2022-09-28T19:43:07.040Z,8.62
2022-09-28T19:45:38.243Z,8.58
2022-09-28T19:48:07.176Z,8.64
2022-09-28T19:50:36.039Z,8.66
2022-09-28T19:53:07.471Z,8.70
2022-09-28T19:55:36.353Z,8.73
2022-09-28T19:58:05.383Z,8.76
2022-09-28T20:00:34.273Z,8.74
2022-09-28T20:03:04.881Z,8.75
2022-09-28T20:05:33.831Z,8.71
2022-09-28T20:10:37.162Z,8.69
2022-09-28T20:13:06.067Z,8.63
2022-09-28T20:15:37.428Z,8.58
2022-09-28T20:18:08.457Z,8.55
2022-09-28T20:20:37.331Z,8.45
2022-09-28T20:23:06.129Z,8.34
2022-09-28T20:25:34.702Z,8.22
2022-09-28T20:28:03.694Z,8.21
2022-09-28T20:30:33.318Z,8.16
2022-09-28T20:33:02.140Z,8.11
2022-09-28T20:35:33.373Z,8.08
2022-09-28T20:38:08.147Z,8.02
2022-09-28T20:40:36.836Z,7.97
2022-09-28T20:43:06.817Z,7.90
2022-09-28T20:45:36.653Z,7.84
2022-09-28T20:48:06.543Z,7.83
2022-09-28T20:50:36.870Z,7.85
2022-09-28T20:53:05.752Z,7.90
2022-09-28T20:55:34.332Z,7.95
2022-09-28T20:58:04.529Z,7.98
2022-09-28T21:00:33.308Z,8.00
2022-09-28T21:03:02.208Z,8.04
2022-09-28T21:05:31.090Z,8.07
2022-09-28T21:08:01.378Z,8.10
2022-09-28T21:10:30.964Z,8.13
2022-09-28T21:12:59.752Z,8.16
2022-09-28T21:15:29.221Z,8.20
2022-09-28T21:17:58.062Z,8.23
2022-09-28T21:20:26.904Z,8.27
2022-09-28T21:22:55.394Z,8.22
2022-09-28T21:25:25.690Z,8.18
2022-09-28T21:27:54.528Z,8.02
2022-09-28T21:30:23.312Z,7.97
2022-09-28T21:32:53.211Z,7.90
2022-09-28T21:35:22.037Z,7.81
2022-09-28T21:37:50.660Z,7.73
2022-09-28T21:40:20.486Z,7.68
2022-09-28T21:42:51.019Z,7.63
2022-09-28T21:45:19.710Z,7.60
2022-09-28T21:47:53.016Z,7.52
2022-09-28T21:50:23.163Z,7.49
2022-09-28T21:52:52.919Z,7.48
2022-09-28T21:55:23.219Z,7.47
2022-09-28T21:57:53.440Z,7.41
2022-09-28T22:00:24.357Z,7.32
2022-09-28T22:02:53.383Z,7.31
2022-09-28T22:05:22.161Z,7.28
2022-09-28T22:07:50.647Z,7.25
2022-09-28T22:10:19.632Z,7.23
2022-09-28T22:12:48.505Z,7.27
2022-09-28T22:15:18.992Z,7.23
2022-09-28T22:17:47.466Z,7.23
2022-09-28T22:20:16.340Z,7.18
2022-09-28T22:22:44.826Z,7.16
2022-09-28T22:25:13.902Z,7.09
2022-09-28T22:27:42.784Z,7.06
2022-09-28T22:30:12.355Z,7.00
2022-09-28T22:32:42.625Z,6.99
2022-09-28T22:35:11.738Z,6.97
2022-09-28T22:37:40.292Z,6.95
2022-09-28T22:40:11.816Z,7.02
2022-09-28T22:42:40.983Z,7.03
2022-09-28T22:45:10.282Z,7.10
2022-09-28T22:47:39.282Z,7.14
2022-09-28T22:50:10.268Z,7.18
2022-09-28T22:52:38.745Z,7.14
2022-09-28T22:55:08.317Z,7.16
2022-09-28T22:57:37.243Z,7.17
2022-09-28T23:00:07.120Z,7.03
2022-09-28T23:02:36.018Z,7.07
2022-09-28T23:05:05.631Z,7.02
2022-09-28T23:07:35.503Z,7.11
2022-09-28T23:10:04.512Z,7.08
2022-09-28T23:12:35.760Z,7.16
2022-09-28T23:15:06.559Z,7.08
2022-09-28T23:17:35.488Z,6.96
2022-09-28T23:20:04.608Z,7.00
2022-09-28T23:22:33.276Z,6.83
2022-09-28T23:25:03.728Z,6.72
2022-09-28T23:27:32.340Z,6.66
2022-09-28T23:30:01.304Z,6.55
2022-09-28T23:32:32.107Z,6.58
2022-09-28T23:35:01.238Z,6.52
2022-09-28T23:37:29.775Z,6.46
2022-09-28T23:39:58.618Z,6.59
2022-09-28T23:42:29.105Z,6.57
2022-09-28T23:44:57.780Z,6.60
2022-09-28T23:47:26.677Z,6.66
2022-09-28T23:49:55.193Z,6.52
2022-09-28T23:52:24.149Z,6.45
2022-09-28T23:54:52.987Z,6.39
2022-09-28T23:57:21.966Z,6.36
2022-09-28T23:59:52.334Z,6.43
